Time;durP1;ratioP1;P1;durP2;ratioP2;P2;SDS_P1;SDS_P2;PMS_P1;PMS_P2;Temp;Humidity;BMP_temperature;BMP_pressure;BME280_temperature;BME280_humidity;BME280_pressure;Samples;Min_cycle;Max_cycle;Signal;HPM_P1;HPM_P2
2023/09/06 00:01:52;;;;;;;5.25;2.83;;;;;;;14.94;100.00;96266.28;5052033;28;24446;-76
2023/09/06 00:04:18;;;;;;;5.88;2.80;;;;;;;14.81;100.00;96262.91;5051661;28;24855;-76
2023/09/06 00:06:45;;;;;;;12.80;2.90;;;;;;;14.80;100.00;96268.22;5052117;28;24443;-77
2023/09/06 00:09:11;;;;;;;5.03;2.60;;;;;;;14.51;100.00;96265.91;5052168;28;24430;-76
2023/09/06 00:11:39;;;;;;;3.90;2.70;;;;;;;14.35;100.00;96262.66;5051916;28;25010;-76
2023/09/06 00:14:06;;;;;;;5.07;2.88;;;;;;;14.36;100.00;96262.56;5051388;28;24431;-76
2023/09/06 00:16:32;;;;;;;4.97;3.10;;;;;;;14.49;100.00;96255.56;5053613;28;24427;-76
2023/09/06 00:19:00;;;;;;;9.02;3.13;;;;;;;14.61;100.00;96260.88;5055309;28;24805;-76
2023/09/06 00:21:28;;;;;;;4.75;3.35;;;;;;;14.68;100.00;96262.94;5054928;28;24438;-76
2023/09/06 00:23:54;;;;;;;4.55;3.47;;;;;;;14.72;100.00;96267.00;5055006;28;24972;-76
2023/09/06 00:26:21;;;;;;;4.82;3.17;;;;;;;14.76;100.00;96268.44;5056085;28;24435;-76
2023/09/06 00:28:47;;;;;;;5.07;2.90;;;;;;;14.74;100.00;96259.06;5055798;28;24489;-76
2023/09/06 00:31:14;;;;;;;4.05;2.75;;;;;;;14.81;100.00;96267.28;5055244;28;24439;-76
2023/09/06 00:33:41;;;;;;;2.85;2.60;;;;;;;14.64;100.00;96261.47;5055601;28;24423;-76
2023/09/06 00:36:09;;;;;;;3.15;2.42;;;;;;;14.56;100.00;96258.59;5055823;28;24501;-76
2023/09/06 00:38:36;;;;;;;3.05;2.53;;;;;;;14.50;100.00;96254.66;5055024;28;24482;-76
2023/09/06 00:41:03;;;;;;;4.57;3.10;;;;;;;14.57;100.00;96249.00;5055248;28;24439;-76
2023/09/06 00:43:29;;;;;;;4.30;2.72;;;;;;;14.62;100.00;96254.72;5053865;28;24451;-76
2023/09/06 00:45:56;;;;;;;4.47;2.85;;;;;;;14.64;100.00;96258.88;5054397;28;24423;-76
2023/09/06 00:48:25;;;;;;;2.97;2.67;;;;;;;14.66;100.00;96251.78;5054472;28;24427;-76
2023/09/06 00:50:55;;;;;;;4.07;2.80;;;;;;;14.65;100.00;96252.75;5055584;28;24431;-75
2023/09/06 00:53:24;;;;;;;5.85;2.90;;;;;;;14.63;100.00;96259.00;5055233;28;24431;-76
2023/09/06 00:55:52;;;;;;;3.55;3.00;;;;;;;14.66;100.00;96250.97;5055345;28;24434;-76
2023/09/06 00:58:20;;;;;;;5.13;2.80;;;;;;;14.72;100.00;96253.97;5055366;28;24442;-77
2023/09/06 01:00:47;;;;;;;3.22;2.47;;;;;;;14.69;100.00;96253.34;5055398;28;24438;-75
2023/09/06 01:03:15;;;;;;;2.90;2.30;;;;;;;14.68;100.00;96255.13;5055335;28;24431;-77
2023/09/06 01:05:47;;;;;;;3.55;2.50;;;;;;;14.67;100.00;96258.66;5055856;28;24463;-78
2023/09/06 01:08:18;;;;;;;3.70;2.30;;;;;;;14.66;100.00;96251.78;5055713;28;24458;-77
2023/09/06 01:10:46;;;;;;;4.43;2.83;;;;;;;14.74;100.00;96257.28;5055566;28;24446;-77
2023/09/06 01:13:12;;;;;;;3.20;2.60;;;;;;;14.51;100.00;96253.72;5055556;28;24920;-77
2023/09/06 01:15:43;;;;;;;2.88;2.40;;;;;;;14.38;100.00;96247.66;5055579;28;24998;-78
2023/09/06 01:18:10;;;;;;;3.35;2.47;;;;;;;14.43;100.00;96249.97;5055651;28;24942;-78
2023/09/06 01:20:43;;;;;;;3.30;2.50;;;;;;;14.38;100.00;96241.63;5055186;28;24435;-78
2023/09/06 01:23:24;;;;;;;6.22;2.70;;;;;;;14.19;100.00;96248.09;5055227;28;24435;-78
2023/09/06 01:25:51;;;;;;;4.43;2.30;;;;;;;13.88;100.00;96240.75;5054806;28;24425;-77
2023/09/06 01:28:19;;;;;;;4.75;2.50;;;;;;;13.79;100.00;96245.66;5054348;28;24428;-77
2023/09/06 01:30:46;;;;;;;5.75;2.28;;;;;;;13.85;100.00;96239.19;5055075;28;24443;-77
2023/09/06 01:33:16;;;;;;;2.77;2.47;;;;;;;13.77;100.00;96238.88;5055229;28;24428;-77
2023/09/06 01:35:42;;;;;;;4.68;2.65;;;;;;;13.63;100.00;96233.78;5055005;28;24439;-77
2023/09/06 01:38:09;;;;;;;7.35;2.80;;;;;;;13.43;100.00;96230.75;5054471;28;24989;-78
2023/09/06 01:40:37;;;;;;;3.25;2.67;;;;;;;13.22;100.00;96230.38;5055007;28;24431;-78
2023/09/06 01:43:03;;;;;;;3.80;2.47;;;;;;;13.22;100.00;96230.38;5054468;28;24787;-77
2023/09/06 01:45:31;;;;;;;2.72;2.40;;;;;;;13.33;100.00;96232.28;5055155;28;24842;-77
2023/09/06 01:47:58;;;;;;;4.53;2.20;;;;;;;13.44;100.00;96234.19;5054593;28;24451;-77
2023/09/06 01:50:24;;;;;;;4.57;3.20;;;;;;;13.52;100.00;96232.72;5055099;28;24431;-78
2023/09/06 01:52:52;;;;;;;5.15;3.22;;;;;;;13.42;100.00;96236.03;5054636;28;24979;-77
2023/09/06 01:55:18;;;;;;;3.95;2.97;;;;;;;13.23;100.00;96231.19;5054669;28;24827;-78
2023/09/06 01:57:46;;;;;;;6.40;3.20;;;;;;;13.14;100.00;96227.44;5054952;28;24434;-76
2023/09/06 02:00:22;;;;;;;3.13;2.65;;;;;;;13.10;100.00;96233.78;5054849;28;24434;-77
2023/09/06 02:02:49;;;;;;;3.10;2.90;;;;;;;13.20;100.00;96234.84;5054670;28;24468;-77
2023/09/06 02:05:15;;;;;;;4.10;2.85;;;;;;;13.27;100.00;96238.75;5054590;28;25004;-78
2023/09/06 02:07:42;;;;;;;5.18;3.10;;;;;;;13.42;100.00;96239.50;5055130;28;24431;-76
2023/09/06 02:10:10;;;;;;;3.65;3.28;;;;;;;13.41;100.00;96235.22;5055057;28;24431;-77
2023/09/06 02:12:36;;;;;;;3.55;2.95;;;;;;;13.43;100.00;96232.53;5054163;28;24844;-77
2023/09/06 02:15:06;;;;;;;3.92;2.92;;;;;;;13.47;100.00;96229.59;5054988;28;24430;-77
2023/09/06 02:17:33;;;;;;;4.35;2.60;;;;;;;13.27;100.00;96227.47;5054681;28;25030;-78
2023/09/06 02:20:12;;;;;;;3.60;3.00;;;;;;;13.31;100.00;96232.41;5054236;28;24447;-77
2023/09/06 02:22:39;;;;;;;3.95;3.05;;;;;;;13.21;100.00;96233.06;5054533;28;24449;-76
2023/09/06 02:25:07;;;;;;;5.57;3.42;;;;;;;13.20;100.00;96231.38;5054812;28;24447;-77
2023/09/06 02:27:33;;;;;;;4.78;3.10;;;;;;;13.10;100.00;96225.16;5054544;28;24437;-75
2023/09/06 02:30:00;;;;;;;4.15;3.08;;;;;;;12.88;100.00;96230.91;5054790;28;24536;-76
2023/09/06 02:32:31;;;;;;;5.30;2.88;;;;;;;12.80;100.00;96227.03;5054389;28;24430;-75
2023/09/06 02:34:57;;;;;;;3.90;2.88;;;;;;;12.80;100.00;96228.81;5054682;28;24429;-76
2023/09/06 02:37:24;;;;;;;4.38;2.78;;;;;;;12.87;100.00;96234.41;5054007;28;24792;-75
2023/09/06 02:39:52;;;;;;;3.72;2.70;;;;;;;12.96;100.00;96234.66;5053804;28;24439;-75
2023/09/06 02:42:19;;;;;;;5.25;2.60;;;;;;;12.91;100.00;96231.53;5053628;28;24445;-76
2023/09/06 02:44:46;;;;;;;3.60;2.50;;;;;;;12.63;100.00;96229.03;5053734;28;24447;-75
2023/09/06 02:47:15;;;;;;;3.33;2.88;;;;;;;12.56;100.00;96231.19;5053837;28;24445;-76
2023/09/06 02:49:43;;;;;;;4.03;2.85;;;;;;;12.46;100.00;96237.88;5053633;28;24985;-77
2023/09/06 02:52:20;;;;;;;3.95;2.90;;;;;;;12.43;100.00;96227.72;5053679;28;24439;-75
2023/09/06 02:54:47;;;;;;;3.25;2.95;;;;;;;12.43;100.00;96238.09;5054087;28;24963;-75
2023/09/06 02:57:14;;;;;;;4.10;3.20;;;;;;;12.42;100.00;96224.28;5053018;28;24438;-75
2023/09/06 02:59:41;;;;;;;5.65;3.33;;;;;;;12.52;100.00;96233.13;5053965;28;24484;-75
2023/09/06 03:02:07;;;;;;;5.63;4.40;;;;;;;12.55;100.00;96234.72;5052565;28;24446;-77
2023/09/06 03:04:37;;;;;;;5.80;4.18;;;;;;;12.47;100.00;96232.59;5053575;28;24446;-76
2023/09/06 03:07:07;;;;;;;6.93;4.07;;;;;;;12.49;100.00;96228.13;5053806;28;24894;-75
2023/09/06 03:09:35;;;;;;;4.75;3.90;;;;;;;12.56;100.00;96236.38;5053254;28;24437;-75
2023/09/06 03:12:07;;;;;;;5.13;3.72;;;;;;;12.65;100.00;96234.97;5053796;28;24449;-76
2023/09/06 03:14:36;;;;;;;6.10;4.05;;;;;;;12.73;100.00;96228.34;5054042;28;24435;-75
2023/09/06 03:17:08;;;;;;;5.13;3.80;;;;;;;12.71;100.00;96235.41;5053337;28;24478;-75
2023/09/06 03:19:38;;;;;;;8.13;3.90;;;;;;;12.74;100.00;96240.41;5053449;28;24518;-75
2023/09/06 03:22:09;;;;;;;4.13;3.25;;;;;;;12.63;100.00;96234.22;5052465;28;24443;-77
2023/09/06 03:24:35;;;;;;;6.93;3.80;;;;;;;12.62;100.00;96232.56;5053485;28;24546;-75
2023/09/06 03:27:07;;;;;;;5.70;3.53;;;;;;;12.66;100.00;96232.28;5053428;28;24476;-75
2023/09/06 03:29:36;;;;;;;6.07;3.30;;;;;;;12.56;100.00;96232.00;5053603;28;24873;-75
2023/09/06 03:32:03;;;;;;;4.13;3.25;;;;;;;12.46;100.00;96228.34;5053186;28;24493;-76
2023/09/06 03:34:30;;;;;;;3.65;2.90;;;;;;;12.42;100.00;96226.03;5053230;28;24475;-76
2023/09/06 03:36:57;;;;;;;4.93;3.47;;;;;;;12.50;100.00;96229.00;5054284;28;24433;-77
2023/09/06 03:39:28;;;;;;;7.13;3.25;;;;;;;12.48;100.00;96226.47;5053184;28;24538;-77
2023/09/06 03:41:57;;;;;;;4.43;2.97;;;;;;;12.34;100.00;96227.34;5053374;28;24443;-76
2023/09/06 03:44:24;;;;;;;5.35;3.30;;;;;;;12.24;100.00;96228.03;5053002;28;24451;-76
2023/09/06 03:46:51;;;;;;;4.25;3.25;;;;;;;12.04;100.00;96231.84;5053182;28;24509;-78
2023/09/06 03:49:18;;;;;;;3.83;3.20;;;;;;;12.02;100.00;96225.91;5054061;28;24446;-76
2023/09/06 03:51:45;;;;;;;7.90;2.78;;;;;;;11.88;100.00;96231.94;5052808;28;24447;-77
2023/09/06 03:54:12;;;;;;;3.72;2.90;;;;;;;11.73;100.00;96225.88;5052615;28;24457;-76
2023/09/06 03:56:41;;;;;;;5.32;3.58;;;;;;;11.61;100.00;96235.25;5052729;28;24430;-76
2023/09/06 03:59:08;;;;;;;3.75;3.05;;;;;;;11.57;100.00;96233.75;5052676;28;24439;-76
2023/09/06 04:01:34;;;;;;;4.10;3.17;;;;;;;11.60;100.00;96232.72;5051489;28;24976;-77
2023/09/06 04:04:01;;;;;;;5.05;3.40;;;;;;;11.67;100.00;96230.59;5052813;28;24431;-76
2023/09/06 04:06:28;;;;;;;5.10;3.45;;;;;;;11.78;100.00;96231.63;5052283;28;24446;-76
2023/09/06 04:08:55;;;;;;;4.00;3.30;;;;;;;11.87;100.00;96232.88;5053093;28;24464;-76
2023/09/06 04:11:22;;;;;;;4.38;2.90;;;;;;;11.89;100.00;96231.00;5052465;28;24439;-76
2023/09/06 04:13:52;;;;;;;6.30;3.20;;;;;;;11.86;100.00;96239.84;5053089;28;24463;-77
2023/09/06 04:16:19;;;;;;;7.07;3.88;;;;;;;11.89;100.00;96230.19;5053437;28;24960;-76
2023/09/06 04:18:45;;;;;;;6.32;3.72;;;;;;;11.89;100.00;96240.56;5052838;28;24436;-76
2023/09/06 04:21:12;;;;;;;5.53;3.73;;;;;;;11.89;100.00;96237.97;5052528;28;24439;-76
2023/09/06 04:23:39;;;;;;;5.47;3.20;;;;;;;11.93;100.00;96240.28;5053129;28;24434;-75
2023/09/06 04:26:05;;;;;;;5.35;3.40;;;;;;;11.98;100.00;96233.06;5053006;28;24547;-76
2023/09/06 04:28:32;;;;;;;5.15;2.95;;;;;;;12.02;100.00;96241.50;5052911;28;24777;-76
2023/09/06 04:31:02;;;;;;;4.18;3.30;;;;;;;12.15;100.00;96242.41;5058035;28;24995;-77
2023/09/06 04:33:28;;;;;;;3.67;2.90;;;;;;;12.14;100.00;96238.13;5051932;28;24447;-77
2023/09/06 04:35:55;;;;;;;5.95;3.22;;;;;;;12.06;100.00;96242.97;5053371;28;24424;-77
2023/09/06 04:38:24;;;;;;;5.53;3.50;;;;;;;11.92;100.00;96246.41;5052671;28;24434;-77
2023/09/06 04:40:51;;;;;;;3.80;3.35;;;;;;;11.83;100.00;96241.75;5054073;28;24435;-77
2023/09/06 04:43:19;;;;;;;4.68;3.22;;;;;;;11.86;100.00;96242.44;5056420;28;24442;-77
2023/09/06 04:45:47;;;;;;;4.38;3.28;;;;;;;11.85;100.00;96239.91;5057225;28;24490;-77
2023/09/06 04:48:16;;;;;;;5.43;3.40;;;;;;;11.93;100.00;96245.47;5056187;28;24446;-76
2023/09/06 04:50:44;;;;;;;3.80;2.95;;;;;;;11.80;100.00;96239.31;5055697;28;25042;-77
2023/09/06 04:53:12;;;;;;;4.13;3.10;;;;;;;11.78;100.00;96249.78;5055787;28;24550;-76
2023/09/06 04:55:39;;;;;;;4.97;2.90;;;;;;;11.78;100.00;96247.19;5054820;28;24862;-78
2023/09/06 04:58:07;;;;;;;4.95;2.85;;;;;;;11.74;100.00;96243.09;5054629;28;24565;-77
2023/09/06 05:00:37;;;;;;;4.55;3.00;;;;;;;11.83;100.00;96253.00;5053757;28;24431;-77
2023/09/06 05:03:08;;;;;;;3.22;2.92;;;;;;;11.76;100.00;96248.22;5056407;28;24443;-76
2023/09/06 05:05:37;;;;;;;3.83;2.88;;;;;;;11.73;100.00;96251.00;5058766;28;24473;-77
2023/09/06 05:08:04;;;;;;;3.63;2.80;;;;;;;11.71;100.00;96255.44;5057433;28;24786;-77
2023/09/06 05:10:30;;;;;;;4.57;3.00;;;;;;;11.76;100.00;96258.59;5054250;28;24488;-78
2023/09/06 05:12:57;;;;;;;3.00;2.70;;;;;;;11.79;100.00;96258.41;5055511;28;24829;-76
2023/09/06 05:15:23;;;;;;;3.95;2.80;;;;;;;11.82;100.00;96264.25;5054743;28;24435;-76
2023/09/06 05:17:50;;;;;;;2.60;2.40;;;;;;;11.84;100.00;96265.03;5053931;28;24434;-76
2023/09/06 05:20:32;;;;;;;3.88;2.88;;;;;;;11.90;100.00;96260.38;5053256;28;24419;-76
2023/09/06 05:23:03;;;;;;;4.82;3.42;;;;;;;12.04;100.00;96260.38;5053053;28;24455;-76
2023/09/06 05:25:30;;;;;;;7.00;3.00;;;;;;;12.10;100.00;96260.84;5053218;28;24484;-76
2023/09/06 05:27:59;;;;;;;4.60;2.53;;;;;;;12.10;100.00;96255.66;5053031;28;24415;-76
2023/09/06 05:30:25;;;;;;;6.63;2.83;;;;;;;12.02;100.00;96259.66;5053080;28;24428;-76
2023/09/06 05:32:52;;;;;;;4.07;3.08;;;;;;;12.04;100.00;96262.97;5054514;28;24426;-77
2023/09/06 05:35:18;;;;;;;3.58;3.20;;;;;;;12.22;100.00;96264.47;5039806;28;24427;-76
2023/09/06 05:37:45;;;;;;;5.75;3.80;;;;;;;12.29;100.00;96264.94;5064554;28;24435;-76
2023/09/06 05:40:13;;;;;;;3.97;3.35;;;;;;;12.37;100.00;96267.03;5070082;28;24434;-76
2023/09/06 05:42:40;;;;;;;3.45;3.15;;;;;;;12.47;100.00;96275.94;5072772;28;24819;-76
2023/09/06 05:45:10;;;;;;;4.45;3.13;;;;;;;12.50;100.00;96271.41;5072697;28;24452;-77
2023/09/06 05:47:38;;;;;;;5.07;3.37;;;;;;;12.56;100.00;96270.16;5072812;28;24506;-76
2023/09/06 05:50:05;;;;;;;4.72;3.40;;;;;;;12.68;100.00;96276.34;5072376;28;24429;-77
2023/09/06 05:52:32;;;;;;;4.47;3.20;;;;;;;12.80;100.00;96268.63;5072178;28;24422;-76
2023/09/06 05:54:58;;;;;;;5.88;3.65;;;;;;;12.94;100.00;96274.69;5072353;28;24989;-77
2023/09/06 05:57:26;;;;;;;3.63;3.30;;;;;;;13.07;100.00;96265.19;5073218;28;24501;-78
2023/09/06 05:59:52;;;;;;;6.50;3.60;;;;;;;13.16;100.00;96272.38;5073344;28;24422;-78
2023/09/06 06:02:19;;;;;;;4.22;3.08;;;;;;;13.31;100.00;96274.03;5074129;28;24415;-78
2023/09/06 06:04:46;;;;;;;5.03;3.70;;;;;;;13.46;100.00;96268.72;5074144;28;24966;-78
2023/09/06 06:07:13;;;;;;;4.70;3.50;;;;;;;13.66;100.00;96264.81;5075471;28;24476;-79
2023/09/06 06:09:40;;;;;;;5.23;3.37;;;;;;;13.85;100.00;96261.78;5078048;28;24415;-79
2023/09/06 06:12:07;;;;;;;5.65;3.83;;;;;;;13.98;100.00;96262.63;5077900;28;24816;-79
2023/09/06 06:14:36;;;;;;;7.10;4.47;;;;;;;14.13;100.00;96268.56;5076676;28;24863;-79
2023/09/06 06:17:03;;;;;;;4.32;3.78;;;;;;;14.28;100.00;96260.50;5075096;28;24445;-78
2023/09/06 06:19:30;;;;;;;5.50;3.70;;;;;;;14.35;100.00;96260.06;5075072;28;24804;-77
2023/09/06 06:21:56;;;;;;;5.30;4.28;;;;;;;14.10;100.00;96263.56;5072761;28;24438;-77
2023/09/06 06:24:23;;;;;;;5.07;3.72;;;;;;;14.18;100.00;96266.47;5074500;28;24509;-77
2023/09/06 06:26:51;;;;;;;3.70;3.40;;;;;;;14.44;100.00;96262.88;5075051;28;24437;-78
2023/09/06 06:29:17;;;;;;;6.30;4.10;;;;;;;14.19;100.00;96275.94;5080224;28;24840;-79
2023/09/06 06:31:46;;;;;;;5.95;4.00;;;;;;;14.32;100.00;96265.50;5078827;28;24422;-79
2023/09/06 06:34:14;;;;;;;4.32;3.92;;;;;;;14.44;100.00;96268.09;5081989;28;24431;-78
2023/09/06 06:36:40;;;;;;;4.93;4.30;;;;;;;14.50;100.00;96269.47;5079953;28;24417;-77
2023/09/06 06:39:07;;;;;;;5.93;4.05;;;;;;;14.63;100.00;96279.84;5081257;28;24418;-78
2023/09/06 06:41:33;;;;;;;8.65;4.15;;;;;;;14.88;100.00;96281.53;5081716;28;24484;-78
2023/09/06 06:44:00;;;;;;;5.87;4.33;;;;;;;14.99;100.00;96285.03;5082214;28;24414;-77
2023/09/06 06:46:29;;;;;;;5.25;4.28;;;;;;;14.56;100.00;96287.25;5083142;28;24446;-78
2023/09/06 06:48:57;;;;;;;7.68;4.50;;;;;;;14.54;100.00;96286.56;5082311;28;24421;-78
2023/09/06 06:51:25;;;;;;;6.88;4.72;;;;;;;14.80;100.00;96289.91;5079094;28;24419;-77
2023/09/06 06:53:52;;;;;;;6.47;4.18;;;;;;;14.99;100.00;96292.03;5078426;28;24953;-79
2023/09/06 06:56:21;;;;;;;6.30;4.50;;;;;;;15.42;100.00;96297.53;5076365;28;24447;-78
2023/09/06 06:58:48;;;;;;;8.25;4.53;;;;;;;15.75;100.00;96292.59;5079448;28;24426;-78
2023/09/06 07:01:14;;;;;;;7.22;4.28;;;;;;;16.16;100.00;96281.59;5076601;28;24437;-79
2023/09/06 07:03:41;;;;;;;4.90;3.70;;;;;;;16.48;100.00;96279.13;5078095;28;24423;-79
2023/09/06 07:06:09;;;;;;;4.70;4.20;;;;;;;16.77;100.00;96276.03;5077830;28;24451;-79
2023/09/06 07:08:36;;;;;;;5.43;3.97;;;;;;;17.05;100.00;96283.31;5076421;28;24498;-78
2023/09/06 07:11:04;;;;;;;4.87;4.00;;;;;;;17.13;100.00;96275.69;5080978;28;24532;-80
2023/09/06 07:13:30;;;;;;;7.05;4.32;;;;;;;17.20;100.00;96278.63;5079787;28;25078;-78
2023/09/06 07:15:57;;;;;;;10.98;4.40;;;;;;;16.94;100.00;96278.09;5080455;28;24429;-77
2023/09/06 07:18:23;;;;;;;6.00;4.33;;;;;;;16.83;100.00;96278.13;5080397;28;24433;-79
2023/09/06 07:20:50;;;;;;;6.38;4.38;;;;;;;16.94;100.00;96275.50;5079770;28;24422;-79
2023/09/06 07:23:18;;;;;;;8.73;3.80;;;;;;;17.24;100.00;96271.34;5078918;28;24431;-77
2023/09/06 07:25:46;;;;;;;5.03;3.72;;;;;;;17.53;100.00;96282.06;5071837;28;24446;-77
2023/09/06 07:28:13;;;;;;;8.15;4.60;;;;;;;17.82;100.00;96279.66;5071275;28;24864;-75
2023/09/06 07:30:40;;;;;;;5.78;3.97;;;;;;;18.11;100.00;96275.44;5071104;28;24418;-74
2023/09/06 07:33:06;;;;;;;6.68;4.40;;;;;;;18.42;100.00;96278.03;5070879;28;24433;-75
2023/09/06 07:35:33;;;;;;;6.93;4.15;;;;;;;18.72;100.00;96279.81;5072263;28;24955;-76
2023/09/06 07:38:00;;;;;;;6.22;4.53;;;;;;;18.15;100.00;96281.25;5072126;28;24472;-76
2023/09/06 07:40:28;;;;;;;4.60;4.10;;;;;;;18.74;100.00;96280.53;5072317;28;24835;-76
2023/09/06 07:42:55;;;;;;;4.75;4.03;;;;;;;19.05;100.00;96289.16;5071593;28;24419;-75
2023/09/06 07:45:21;;;;;;;6.90;4.38;;;;;;;19.01;100.00;96286.94;5072166;28;24971;-76
2023/09/06 07:47:47;;;;;;;5.07;3.77;;;;;;;19.23;100.00;96283.25;5072776;28;24426;-76
2023/09/06 07:50:14;;;;;;;5.20;3.58;;;;;;;19.37;100.00;96293.34;5072412;28;24434;-77
2023/09/06 07:52:41;;;;;;;5.85;3.70;;;;;;;19.71;100.00;96285.06;5071933;28;24426;-76
2023/09/06 07:55:08;;;;;;;8.60;4.00;;;;;;;20.08;100.00;96287.75;5072441;28;24425;-76
2023/09/06 07:57:36;;;;;;;5.38;3.53;;;;;;;20.44;100.00;96290.56;5071531;28;24419;-76
2023/09/06 08:00:04;;;;;;;5.55;3.47;;;;;;;20.71;100.00;96290.59;5072388;28;24430;-78
2023/09/06 08:02:31;;;;;;;8.10;3.65;;;;;;;21.00;100.00;96281.72;5072006;28;24423;-75
2023/09/06 08:04:57;;;;;;;5.28;3.65;;;;;;;21.23;98.97;96288.22;5072331;28;24793;-77
2023/09/06 08:07:24;;;;;;;4.72;3.75;;;;;;;21.52;96.70;96291.66;5071336;28;24451;-78
2023/09/06 08:09:50;;;;;;;6.53;4.15;;;;;;;21.07;94.59;96297.75;5071563;28;24434;-78
2023/09/06 08:12:17;;;;;;;5.95;4.10;;;;;;;20.64;96.28;96294.78;5076123;28;24991;-78
2023/09/06 08:14:45;;;;;;;9.48;4.25;;;;;;;20.15;100.00;96288.03;5079598;28;24411;-78
2023/09/06 08:17:11;;;;;;;6.13;3.80;;;;;;;20.29;100.00;96293.66;5072814;28;24419;-75
2023/09/06 08:19:38;;;;;;;7.35;4.15;;;;;;;20.33;100.00;96302.09;5071023;28;24836;-74
2023/09/06 08:22:04;;;;;;;7.93;3.70;;;;;;;20.37;100.00;96302.63;5070635;28;24541;-75
2023/09/06 08:24:32;;;;;;;5.32;3.70;;;;;;;20.59;100.00;96304.94;5070751;28;24483;-74
2023/09/06 08:26:58;;;;;;;5.25;3.72;;;;;;;20.52;100.00;96304.69;5070485;28;24475;-74
2023/09/06 08:29:24;;;;;;;5.15;3.42;;;;;;;20.40;100.00;96303.19;5070149;28;24975;-74
2023/09/06 08:31:52;;;;;;;5.68;3.65;;;;;;;20.41;100.00;96302.19;5070086;28;24773;-74
2023/09/06 08:34:19;;;;;;;5.50;3.30;;;;;;;20.63;99.71;96294.94;5069774;28;24425;-76
2023/09/06 08:36:45;;;;;;;5.55;3.78;;;;;;;20.66;98.84;96292.03;5071305;28;24489;-75
2023/09/06 08:39:12;;;;;;;7.63;3.38;;;;;;;20.69;100.00;96297.84;5074167;28;24441;-75
2023/09/06 08:41:40;;;;;;;3.65;3.15;;;;;;;20.87;97.52;96307.56;5073941;28;24429;-75
2023/09/06 08:44:11;;;;;;;6.70;3.63;;;;;;;20.96;96.61;96304.88;5074082;28;24419;-77
2023/09/06 08:46:41;;;;;;;5.78;3.80;;;;;;;21.04;97.62;96304.16;5075431;28;24876;-76
2023/09/06 08:49:10;;;;;;;5.47;3.45;;;;;;;21.27;96.14;96302.75;5073872;28;24422;-76
2023/09/06 08:51:37;;;;;;;4.18;3.75;;;;;;;21.20;94.32;96296.41;5074029;28;24772;-76
2023/09/06 08:54:05;;;;;;;4.75;3.70;;;;;;;21.36;92.68;96302.84;5073834;28;24413;-78
2023/09/06 08:56:32;;;;;;;4.53;3.40;;;;;;;21.59;93.05;96306.69;5073895;28;24434;-77
2023/09/06 08:58:59;;;;;;;5.30;3.60;;;;;;;21.62;91.93;96301.13;5073844;28;24422;-77
2023/09/06 09:01:26;;;;;;;5.72;3.40;;;;;;;21.75;91.70;96303.38;5073813;28;24480;-79
2023/09/06 09:03:53;;;;;;;5.33;3.20;;;;;;;22.17;87.96;96308.84;5074264;28;24943;-79
2023/09/06 09:06:21;;;;;;;6.32;3.72;;;;;;;22.61;88.00;96303.44;5076340;28;24514;-79
2023/09/06 09:08:48;;;;;;;6.35;3.72;;;;;;;22.51;86.24;96307.19;5075330;28;24422;-80
2023/09/06 09:11:17;;;;;;;4.93;3.38;;;;;;;22.65;86.01;96307.44;5073913;28;24804;-76
2023/09/06 09:13:45;;;;;;;6.38;3.80;;;;;;;22.63;85.66;96309.41;5074257;28;24507;-78
2023/09/06 09:16:13;;;;;;;7.13;3.53;;;;;;;23.15;85.88;96313.78;5075839;28;24426;-77
2023/09/06 09:18:41;;;;;;;6.60;4.15;;;;;;;23.31;79.45;96310.31;5077305;28;24411;-78
2023/09/06 09:21:10;;;;;;;5.00;3.28;;;;;;;22.85;81.23;96301.91;5078159;28;24434;-79
2023/09/06 09:23:44;;;;;;;3.83;3.25;;;;;;;22.82;82.46;96302.22;5077228;28;24456;-79
2023/09/06 09:26:11;;;;;;;5.32;3.40;;;;;;;22.59;82.29;96294.06;5076333;28;24816;-77
2023/09/06 09:28:38;;;;;;;4.13;3.13;;;;;;;22.73;84.37;96296.09;5074786;28;24411;-77
2023/09/06 09:31:05;;;;;;;6.40;3.57;;;;;;;22.56;83.32;96299.66;5074861;28;24962;-77
2023/09/06 09:33:31;;;;;;;4.57;3.00;;;;;;;23.19;84.11;96297.41;5074557;28;24818;-77
2023/09/06 09:35:58;;;;;;;4.70;3.28;;;;;;;23.37;80.03;96297.28;5074773;28;24417;-76
2023/09/06 09:38:24;;;;;;;5.20;3.63;;;;;;;23.38;80.33;96293.66;5076512;28;24427;-79
2023/09/06 09:41:06;;;;;;;5.53;3.45;;;;;;;23.82;84.36;96295.22;5077572;28;24960;-78
2023/09/06 09:43:36;;;;;;;3.97;3.47;;;;;;;24.29;84.49;96292.69;5082327;28;24415;-76
2023/09/06 09:46:03;;;;;;;5.93;3.72;;;;;;;24.19;79.98;96286.75;5078272;28;24423;-77
2023/09/06 09:48:31;;;;;;;4.87;3.43;;;;;;;24.34;77.69;96289.53;5075444;28;24510;-77
2023/09/06 09:51:00;;;;;;;6.30;3.55;;;;;;;24.06;78.65;96294.34;5076632;28;24427;-77
2023/09/06 09:53:33;;;;;;;7.45;3.58;;;;;;;24.01;78.05;96294.03;5076051;28;24469;-78
2023/09/06 09:56:06;;;;;;;4.75;3.10;;;;;;;25.04;81.16;96286.97;5056593;28;24431;-78
2023/09/06 09:58:39;;;;;;;3.42;3.10;;;;;;;25.37;74.33;96286.81;5060009;28;24431;-79
2023/09/06 10:01:08;;;;;;;5.00;3.17;;;;;;;25.40;70.10;96289.13;5058833;28;25007;-79
2023/09/06 10:03:39;;;;;;;4.22;2.75;;;;;;;25.48;68.93;96283.75;5055733;28;24423;-78
2023/09/06 10:06:07;;;;;;;5.28;3.00;;;;;;;25.66;68.96;96286.13;5058361;28;24431;-77
2023/09/06 10:08:36;;;;;;;6.57;3.20;;;;;;;25.89;70.31;96287.97;5059091;28;24426;-77
2023/09/06 10:11:06;;;;;;;4.38;3.10;;;;;;;25.92;70.79;96279.59;5059670;28;24416;-77
2023/09/06 10:13:37;;;;;;;4.45;3.10;;;;;;;26.04;70.45;96279.00;5059187;28;24431;-79
2023/09/06 10:16:05;;;;;;;5.88;3.00;;;;;;;26.33;76.89;96279.22;5058932;28;24450;-78
2023/09/06 10:18:31;;;;;;;3.90;2.92;;;;;;;26.13;70.71;96282.41;5058587;28;24423;-78
2023/09/06 10:20:59;;;;;;;4.30;3.20;;;;;;;26.14;71.06;96281.41;5058866;28;24426;-79
2023/09/06 10:23:30;;;;;;;5.40;3.20;;;;;;;26.36;66.40;96284.16;5058375;28;24430;-77
2023/09/06 10:25:59;;;;;;;3.60;3.03;;;;;;;26.11;74.81;96273.81;5058850;28;24432;-78
2023/09/06 10:28:31;;;;;;;3.35;2.95;;;;;;;26.24;68.79;96278.50;5058846;28;24985;-78
2023/09/06 10:31:07;;;;;;;5.63;3.10;;;;;;;26.20;68.98;96283.34;5055496;28;24426;-78
2023/09/06 10:33:56;;;;;;;5.20;2.90;;;;;;;26.19;67.08;96280.88;5053061;28;24485;-78
2023/09/06 10:36:28;;;;;;;5.50;3.30;;;;;;;26.36;68.86;96270.88;5053385;28;24427;-78
2023/09/06 10:39:18;;;;;;;5.43;3.58;;;;;;;26.45;73.49;96265.31;5052856;28;24430;-78
2023/09/06 10:42:16;;;;;;;3.85;3.10;;;;;;;26.33;65.32;96269.44;5052522;28;24431;-78
2023/09/06 10:45:08;;;;;;;5.37;3.43;;;;;;;26.47;74.90;96270.47;5052897;28;24431;-78
2023/09/06 10:47:36;;;;;;;11.27;3.30;;;;;;;26.54;75.02;96266.88;5052917;28;24454;-78
2023/09/06 10:50:21;;;;;;;6.45;3.28;;;;;;;26.50;71.48;96270.09;5052534;28;24956;-78
2023/09/06 10:52:50;;;;;;;7.43;4.07;;;;;;;26.46;75.03;96271.47;5052019;28;24895;-78
2023/09/06 10:55:20;;;;;;;6.05;3.33;;;;;;;26.44;69.65;96269.00;5052117;28;24415;-78
2023/09/06 10:57:47;;;;;;;5.10;3.70;;;;;;;26.43;70.79;96275.28;5052808;28;24519;-78
2023/09/06 11:00:18;;;;;;;5.65;3.30;;;;;;;26.34;69.34;96270.25;5052542;28;24480;-78
2023/09/06 11:03:14;;;;;;;5.10;3.15;;;;;;;26.28;68.20;96271.81;5052229;28;24481;-79
2023/09/06 11:05:43;;;;;;;3.78;3.30;;;;;;;26.24;74.71;96265.22;5051614;28;24421;-78
2023/09/06 11:08:21;;;;;;;8.30;3.42;;;;;;;26.10;69.83;96269.50;5053041;28;24832;-79
2023/09/06 11:10:48;;;;;;;5.15;3.40;;;;;;;26.01;68.96;96276.72;5053270;28;24462;-79
2023/09/06 11:13:14;;;;;;;4.60;3.17;;;;;;;26.18;68.56;96271.25;5052597;28;24431;-78
2023/09/06 11:15:42;;;;;;;5.70;3.40;;;;;;;26.17;67.91;96262.44;5053221;28;24416;-80
2023/09/06 11:18:09;;;;;;;7.68;3.85;;;;;;;26.28;72.93;96264.66;5051594;28;24426;-77
2023/09/06 11:20:37;;;;;;;8.45;3.40;;;;;;;26.16;78.08;96265.31;5051430;28;24971;-78
2023/09/06 11:23:05;;;;;;;3.83;3.47;;;;;;;26.26;68.88;96271.19;5051222;28;24415;-78
2023/09/06 11:25:32;;;;;;;8.63;3.47;;;;;;;26.27;68.06;96259.53;5052466;28;25041;-78
2023/09/06 11:28:02;;;;;;;7.35;3.65;;;;;;;26.24;68.54;96255.41;5052000;28;24501;-77
2023/09/06 11:30:32;;;;;;;12.93;4.25;;;;;;;26.00;72.09;96255.69;5051402;28;20842;-78
2023/09/06 11:32:59;;;;;;;6.88;3.95;;;;;;;26.10;73.24;96250.91;5051348;28;24419;-76